sensor_id;sensor_type;location;lat;lon;timestamp;pressure;altitude;pressure_sealevel;temperature;humidity
13314;BME280;6725;48.112;11.604;2022-10-04T00:01:21;95680.25;;;6.74;100.00
13314;BME280;6725;48.112;11.604;2022-10-04T00:04:09;95677.94;;;6.76;100.00
13314;BME280;6725;48.112;11.604;2022-10-04T00:06:44;95674.50;;;6.79;100.00
13314;BME280;6725;48.112;11.604;2022-10-04T00:09:20;95675.72;;;6.85;100.00
13314;BME280;6725;48.112;11.604;2022-10-04T00:11:48;95675.75;;;6.88;100.00
13314;BME280;6725;48.112;11.604;2022-10-04T00:14:35;95694.47;;;6.97;100.00
13314;BME280;6725;48.112;11.604;2022-10-04T00:17:09;95698.38;;;7.03;100.00
13314;BME280;6725;48.112;11.604;2022-10-04T00:19:46;95697.63;;;7.06;100.00
13314;BME280;6725;48.112;11.604;2022-10-04T00:22:17;95695.38;;;7.12;100.00
13314;BME280;6725;48.112;11.604;2022-10-04T00:27:32;95689.19;;;7.15;100.00
13314;BME280;6725;48.112;11.604;2022-10-04T00:32:45;95683.75;;;7.11;100.00
13314;BME280;6725;48.112;11.604;2022-10-04T00:40:26;95694.09;;;7.02;100.00
13314;BME280;6725;48.112;11.604;2022-10-04T00:43:00;95696.44;;;7.00;100.00
13314;BME280;6725;48.112;11.604;2022-10-04T00:45:33;95696.00;;;6.98;100.00
13314;BME280;6725;48.112;11.604;2022-10-04T00:48:14;95682.81;;;6.97;100.00
13314;BME280;6725;48.112;11.604;2022-10-04T00:53:53;95681.97;;;6.89;100.00
13314;BME280;6725;48.112;11.604;2022-10-04T00:56:54;95684.25;;;6.87;100.00
13314;BME280;6725;48.112;11.604;2022-10-04T01:01:50;95689.63;;;6.80;100.00
13314;BME280;6725;48.112;11.604;2022-10-04T01:04:30;95692.66;;;6.75;100.00
13314;BME280;6725;48.112;11.604;2022-10-04T01:06:59;95693.38;;;6.68;100.00
13314;BME280;6725;48.112;11.604;2022-10-04T01:09:28;95696.00;;;6.61;100.00
13314;BME280;6725;48.112;11.604;2022-10-04T01:12:01;95702.53;;;6.57;100.00
13314;BME280;6725;48.112;11.604;2022-10-04T01:17:16;95681.56;;;6.54;100.00
13314;BME280;6725;48.112;11.604;2022-10-04T01:19:50;95692.34;;;6.47;100.00
13314;BME280;6725;48.112;11.604;2022-10-04T01:24:59;95690.69;;;6.39;100.00
13314;BME280;6725;48.112;11.604;2022-10-04T01:27:43;95684.84;;;6.37;100.00
13314;BME280;6725;48.112;11.604;2022-10-04T01:30:12;95681.38;;;6.36;100.00
13314;BME280;6725;48.112;11.604;2022-10-04T01:32:38;95679.75;;;6.32;100.00
13314;BME280;6725;48.112;11.604;2022-10-04T01:35:06;95678.19;;;6.31;100.00
13314;BME280;6725;48.112;11.604;2022-10-04T01:37:32;95685.16;;;6.28;100.00
13314;BME280;6725;48.112;11.604;2022-10-04T01:39:58;95684.34;;;6.28;100.00
13314;BME280;6725;48.112;11.604;2022-10-04T01:42:45;95678.09;;;6.24;100.00
13314;BME280;6725;48.112;11.604;2022-10-04T01:45:25;95677.31;;;6.23;100.00
13314;BME280;6725;48.112;11.604;2022-10-04T01:48:06;95666.44;;;6.20;100.00
13314;BME280;6725;48.112;11.604;2022-10-04T01:50:42;95673.13;;;6.00;100.00
13314;BME280;6725;48.112;11.604;2022-10-04T01:53:19;95674.72;;;6.01;100.00
13314;BME280;6725;48.112;11.604;2022-10-04T01:55:53;95669.28;;;6.01;100.00
13314;BME280;6725;48.112;11.604;2022-10-04T01:58:32;95665.72;;;5.97;100.00
13314;BME280;6725;48.112;11.604;2022-10-04T02:01:13;95663.81;;;5.97;100.00
13314;BME280;6725;48.112;11.604;2022-10-04T02:03:59;95656.75;;;5.93;100.00
13314;BME280;6725;48.112;11.604;2022-10-04T02:06:28;95656.72;;;5.89;100.00
13314;BME280;6725;48.112;11.604;2022-10-04T02:08:55;95649.69;;;5.85;100.00
13314;BME280;6725;48.112;11.604;2022-10-04T02:11:23;95649.28;;;5.83;100.00
13314;BME280;6725;48.112;11.604;2022-10-04T02:13:50;95649.69;;;5.85;100.00
13314;BME280;6725;48.112;11.604;2022-10-04T02:16:18;95650.41;;;5.82;100.00
13314;BME280;6725;48.112;11.604;2022-10-04T02:18:45;95643.44;;;5.81;100.00
13314;BME280;6725;48.112;11.604;2022-10-04T02:21:12;95648.00;;;5.77;100.00
13314;BME280;6725;48.112;11.604;2022-10-04T02:23:40;95651.41;;;5.70;100.00
13314;BME280;6725;48.112;11.604;2022-10-04T02:26:07;95646.72;;;5.67;100.00
13314;BME280;6725;48.112;11.604;2022-10-04T02:28:34;95641.66;;;5.66;100.00
13314;BME280;6725;48.112;11.604;2022-10-04T02:31:00;95648.22;;;5.65;100.00
13314;BME280;6725;48.112;11.604;2022-10-04T02:33:48;95626.13;;;5.63;100.00
13314;BME280;6725;48.112;11.604;2022-10-04T02:36:15;95623.03;;;5.61;100.00
13314;BME280;6725;48.112;11.604;2022-10-04T02:44:44;95632.16;;;5.53;100.00
13314;BME280;6725;48.112;11.604;2022-10-04T02:47:16;95643.00;;;5.53;100.00
13314;BME280;6725;48.112;11.604;2022-10-04T02:49:59;95634.88;;;5.53;100.00
13314;BME280;6725;48.112;11.604;2022-10-04T02:55:04;95632.84;;;5.46;100.00
13314;BME280;6725;48.112;11.604;2022-10-04T02:57:32;95624.38;;;5.48;100.00
13314;BME280;6725;48.112;11.604;2022-10-04T03:02:33;95630.09;;;5.43;100.00
13314;BME280;6725;48.112;11.604;2022-10-04T03:05:04;95624.25;;;5.41;100.00
13314;BME280;6725;48.112;11.604;2022-10-04T03:07:32;95621.88;;;5.36;100.00
13314;BME280;6725;48.112;11.604;2022-10-04T03:09:59;95611.81;;;5.36;100.00
13314;BME280;6725;48.112;11.604;2022-10-04T03:12:26;95612.19;;;5.35;100.00
13314;BME280;6725;48.112;11.604;2022-10-04T03:14:52;95616.03;;;5.34;100.00
13314;BME280;6725;48.112;11.604;2022-10-04T03:17:19;95613.31;;;5.34;100.00
13314;BME280;6725;48.112;11.604;2022-10-04T03:19:47;95621.41;;;5.30;100.00
13314;BME280;6725;48.112;11.604;2022-10-04T03:22:14;95614.78;;;5.28;100.00
13314;BME280;6725;48.112;11.604;2022-10-04T03:24:51;95615.56;;;5.28;100.00
13314;BME280;6725;48.112;11.604;2022-10-04T03:27:23;95617.06;;;5.26;100.00
13314;BME280;6725;48.112;11.604;2022-10-04T03:29:50;95617.06;;;5.26;100.00
13314;BME280;6725;48.112;11.604;2022-10-04T03:32:18;95598.44;;;5.21;100.00
13314;BME280;6725;48.112;11.604;2022-10-04T03:34:52;95601.44;;;5.16;100.00
13314;BME280;6725;48.112;11.604;2022-10-04T03:37:19;95596.78;;;5.13;100.00
13314;BME280;6725;48.112;11.604;2022-10-04T03:39:48;95610.72;;;5.15;100.00
13314;BME280;6725;48.112;11.604;2022-10-04T03:42:25;95618.44;;;5.13;100.00
13314;BME280;6725;48.112;11.604;2022-10-04T03:44:59;95623.84;;;5.13;100.00
13314;BME280;6725;48.112;11.604;2022-10-04T03:47:30;95616.06;;;5.11;100.00
13314;BME280;6725;48.112;11.604;2022-10-04T03:50:20;95618.44;;;5.13;100.00
13314;BME280;6725;48.112;11.604;2022-10-04T03:52:55;95618.78;;;5.11;100.00
13314;BME280;6725;48.112;11.604;2022-10-04T03:55:24;95613.31;;;5.08;100.00
13314;BME280;6725;48.112;11.604;2022-10-04T03:57:50;95612.91;;;5.06;100.00
13314;BME280;6725;48.112;11.604;2022-10-04T04:00:17;95610.19;;;5.06;100.00
13314;BME280;6725;48.112;11.604;2022-10-04T04:02:54;95617.56;;;5.09;100.00
13314;BME280;6725;48.112;11.604;2022-10-04T04:05:25;95612.59;;;5.11;100.00
13314;BME280;6725;48.112;11.604;2022-10-04T04:08:00;95605.63;;;5.10;100.00
13314;BME280;6725;48.112;11.604;2022-10-04T04:10:30;95604.47;;;5.11;100.00
13314;BME280;6725;48.112;11.604;2022-10-04T04:15:37;95606.72;;;5.09;100.00
13314;BME280;6725;48.112;11.604;2022-10-04T04:18:15;95594.34;;;5.08;100.00
13314;BME280;6725;48.112;11.604;2022-10-04T04:20:43;95598.63;;;5.09;100.00
13314;BME280;6725;48.112;11.604;2022-10-04T04:25:40;95588.94;;;5.08;100.00
13314;BME280;6725;48.112;11.604;2022-10-04T04:30:49;95587.75;;;5.05;100.00
13314;BME280;6725;48.112;11.604;2022-10-04T04:33:23;95596.66;;;5.06;100.00
13314;BME280;6725;48.112;11.604;2022-10-04T04:35:53;95591.25;;;5.06;100.00
13314;BME280;6725;48.112;11.604;2022-10-04T04:38:24;95601.22;;;5.02;100.00
13314;BME280;6725;48.112;11.604;2022-10-04T04:40:51;95599.28;;;5.02;100.00
13314;BME280;6725;48.112;11.604;2022-10-04T04:43:20;95604.66;;;4.99;100.00
13314;BME280;6725;48.112;11.604;2022-10-04T04:45:48;95608.81;;;4.93;100.00
13314;BME280;6725;48.112;11.604;2022-10-04T04:48:16;95596.81;;;4.94;100.00
13314;BME280;6725;48.112;11.604;2022-10-04T04:50:48;95599.53;;;4.94;100.00
13314;BME280;6725;48.112;11.604;2022-10-04T04:53:20;95598.78;;;4.93;100.00
13314;BME280;6725;48.112;11.604;2022-10-04T04:56:03;95597.25;;;4.96;100.00
13314;BME280;6725;48.112;11.604;2022-10-04T04:58:39;95585.28;;;4.97;100.00
13314;BME280;6725;48.112;11.604;2022-10-04T05:01:23;95576.81;;;4.98;100.00
13314;BME280;6725;48.112;11.604;2022-10-04T05:06:38;95584.88;;;4.95;100.00
13314;BME280;6725;48.112;11.604;2022-10-04T05:09:04;95587.88;;;4.90;100.00
13314;BME280;6725;48.112;11.604;2022-10-04T05:11:32;95586.31;;;4.89;100.00
13314;BME280;6725;48.112;11.604;2022-10-04T05:14:03;95581.31;;;4.91;100.00
13314;BME280;6725;48.112;11.604;2022-10-04T05:19:28;95595.41;;;5.00;100.00
13314;BME280;6725;48.112;11.604;2022-10-04T05:21:58;95600.09;;;5.03;100.00
13314;BME280;6725;48.112;11.604;2022-10-04T05:24:30;95581.16;;;5.03;100.00
13314;BME280;6725;48.112;11.604;2022-10-04T05:26:59;95584.97;;;5.02;100.00
13314;BME280;6725;48.112;11.604;2022-10-04T05:29:27;95587.31;;;5.03;100.00
13314;BME280;6725;48.112;11.604;2022-10-04T05:32:02;95595.19;;;5.12;100.00
13314;BME280;6725;48.112;11.604;2022-10-04T05:34:35;95591.84;;;5.18;100.00
13314;BME280;6725;48.112;11.604;2022-10-04T05:37:12;95598.56;;;5.28;100.00
13314;BME280;6725;48.112;11.604;2022-10-04T05:42:40;95569.88;;;5.79;100.00
13314;BME280;6725;48.112;11.604;2022-10-04T05:45:29;95543.06;;;6.80;100.00
13314;BME280;6725;48.112;11.604;2022-10-04T05:47:57;95537.06;;;7.04;100.00
13314;BME280;6725;48.112;11.604;2022-10-04T05:50:38;95543.31;;;7.08;100.00
13314;BME280;6725;48.112;11.604;2022-10-04T06:09:55;95594.09;;;8.30;100.00
13314;BME280;6725;48.112;11.604;2022-10-04T06:23:19;95308.53;;;12.07;100.00
13314;BME280;6725;48.112;11.604;2022-10-04T06:25:55;95298.56;;;11.37;100.00
13314;BME280;6725;48.112;11.604;2022-10-04T06:28:23;95311.78;;;10.75;100.00
13314;BME280;6725;48.112;11.604;2022-10-04T06:49:35;95464.47;;;9.79;100.00
13314;BME280;6725;48.112;11.604;2022-10-04T07:00:25;95488.56;;;9.95;100.00
13314;BME280;6725;48.112;11.604;2022-10-04T07:03:02;95487.72;;;10.12;100.00
13314;BME280;6725;48.112;11.604;2022-10-04T07:08:24;95478.25;;;10.34;100.00
13314;BME280;6725;48.112;11.604;2022-10-04T07:11:10;95473.22;;;10.29;100.00
13314;BME280;6725;48.112;11.604;2022-10-04T07:21:59;95439.31;;;11.59;100.00
13314;BME280;6725;48.112;11.604;2022-10-04T07:27:28;95394.56;;;12.32;100.00
13314;BME280;6725;48.112;11.604;2022-10-04T07:29:57;95371.25;;;12.47;100.00
13314;BME280;6725;48.112;11.604;2022-10-04T07:32:27;95363.69;;;12.55;100.00
13314;BME280;6725;48.112;11.604;2022-10-04T07:35:32;95343.34;;;12.79;100.00
13314;BME280;6725;48.112;11.604;2022-10-04T07:38:12;95325.28;;;13.24;100.00
13314;BME280;6725;48.112;11.604;2022-10-04T07:41:08;95306.34;;;13.69;100.00
13314;BME280;6725;48.112;11.604;2022-10-04T07:43:47;95299.84;;;14.30;100.00
13314;BME280;6725;48.112;11.604;2022-10-04T07:49:02;95189.56;;;15.67;100.00
13314;BME280;6725;48.112;11.604;2022-10-04T07:57:37;95222.91;;;15.03;100.00
13314;BME280;6725;48.112;11.604;2022-10-04T08:03:42;95262.75;;;14.54;100.00
13314;BME280;6725;48.112;11.604;2022-10-04T08:18:45;95213.66;;;16.73;100.00
13314;BME280;6725;48.112;11.604;2022-10-04T08:20:55;95157.81;;;17.55;100.00
13314;BME280;6725;48.112;11.604;2022-10-04T09:00:12;95361.25;;;17.24;100.00
13314;BME280;6725;48.112;11.604;2022-10-04T09:05:36;95472.75;;;17.85;100.00
13314;BME280;6725;48.112;11.604;2022-10-04T09:17:00;95641.22;;;17.64;100.00
13314;BME280;6725;48.112;11.604;2022-10-04T09:22:55;95662.41;;;18.17;100.00
13314;BME280;6725;48.112;11.604;2022-10-04T09:25:41;95683.50;;;18.23;100.00
13314;BME280;6725;48.112;11.604;2022-10-04T09:34:21;95715.25;;;17.15;100.00
13314;BME280;6725;48.112;11.604;2022-10-04T09:37:17;95706.75;;;17.88;100.00
13314;BME280;6725;48.112;11.604;2022-10-04T09:50:56;95760.59;;;18.09;100.00
13314;BME280;6725;48.112;11.604;2022-10-04T10:05:25;95821.19;;;18.16;100.00
13314;BME280;6725;48.112;11.604;2022-10-04T10:16:52;95827.25;;;17.86;100.00
13314;BME280;6725;48.112;11.604;2022-10-04T10:28:15;95826.56;;;17.82;100.00
13314;BME280;6725;48.112;11.604;2022-10-04T10:34:01;95837.69;;;18.57;100.00
13314;BME280;6725;48.112;11.604;2022-10-04T10:42:49;95837.69;;;18.07;100.00
13314;BME280;6725;48.112;11.604;2022-10-04T10:45:34;95857.91;;;18.16;100.00
13314;BME280;6725;48.112;11.604;2022-10-04T10:51:16;95864.09;;;18.08;100.00
13314;BME280;6725;48.112;11.604;2022-10-04T10:54:07;95855.97;;;18.42;100.00
13314;BME280;6725;48.112;11.604;2022-10-04T10:57:02;95873.78;;;18.53;100.00
13314;BME280;6725;48.112;11.604;2022-10-04T11:13:18;95910.69;;;18.22;100.00
13314;BME280;6725;48.112;11.604;2022-10-04T11:21:39;95869.47;;;17.58;100.00
13314;BME280;6725;48.112;11.604;2022-10-04T11:36:14;95862.38;;;17.28;100.00
13314;BME280;6725;48.112;11.604;2022-10-04T11:41:45;95842.03;;;17.22;100.00
13314;BME280;6725;48.112;11.604;2022-10-04T11:47:40;95838.53;;;17.06;100.00
13314;BME280;6725;48.112;11.604;2022-10-04T11:56:15;95848.63;;;16.96;100.00
13314;BME280;6725;48.112;11.604;2022-10-04T11:59:14;95855.06;;;17.06;100.00
13314;BME280;6725;48.112;11.604;2022-10-04T12:07:31;95868.34;;;17.27;100.00
13314;BME280;6725;48.112;11.604;2022-10-04T12:13:17;95871.56;;;17.54;100.00
13314;BME280;6725;48.112;11.604;2022-10-04T12:29:39;95797.31;;;17.43;100.00
13314;BME280;6725;48.112;11.604;2022-10-04T12:32:15;95812.38;;;17.39;100.00
13314;BME280;6725;48.112;11.604;2022-10-04T12:48:49;95802.22;;;17.07;100.00
13314;BME280;6725;48.112;11.604;2022-10-04T12:51:45;95787.47;;;17.26;100.00
13314;BME280;6725;48.112;11.604;2022-10-04T12:54:54;95798.06;;;16.71;100.00
13314;BME280;6725;48.112;11.604;2022-10-04T12:57:32;95757.84;;;16.86;100.00
13314;BME280;6725;48.112;11.604;2022-10-04T13:00:12;95745.38;;;16.81;100.00
13314;BME280;6725;48.112;11.604;2022-10-04T13:17:10;95677.41;;;16.59;100.00
13314;BME280;6725;48.112;11.604;2022-10-04T13:22:05;95702.25;;;16.42;100.00
13314;BME280;6725;48.112;11.604;2022-10-04T13:27:35;95643.78;;;16.64;100.00
13314;BME280;6725;48.112;11.604;2022-10-04T13:30:12;95654.47;;;16.62;100.00
13314;BME280;6725;48.112;11.604;2022-10-04T13:35:29;95693.69;;;16.69;100.00
13314;BME280;6725;48.112;11.604;2022-10-04T13:46:27;95697.00;;;16.77;100.00
13314;BME280;6725;48.112;11.604;2022-10-04T13:49:10;95706.84;;;16.78;100.00
13314;BME280;6725;48.112;11.604;2022-10-04T13:51:45;95710.03;;;16.76;100.00
13314;BME280;6725;48.112;11.604;2022-10-04T13:54:23;95721.16;;;16.73;100.00
13314;BME280;6725;48.112;11.604;2022-10-04T13:57:23;95725.31;;;16.65;100.00
13314;BME280;6725;48.112;11.604;2022-10-04T14:03:01;95734.44;;;16.78;100.00
13314;BME280;6725;48.112;11.604;2022-10-04T14:08:19;95741.59;;;17.04;100.00
13314;BME280;6725;48.112;11.604;2022-10-04T14:28:14;95763.50;;;17.11;100.00
13314;BME280;6725;48.112;11.604;2022-10-04T14:31:10;95762.47;;;17.05;100.00
13314;BME280;6725;48.112;11.604;2022-10-04T14:58:17;95744.69;;;17.06;100.00
13314;BME280;6725;48.112;11.604;2022-10-04T15:01:18;95752.66;;;17.04;100.00
13314;BME280;6725;48.112;11.604;2022-10-04T15:07:17;95742.16;;;16.83;100.00
13314;BME280;6725;48.112;11.604;2022-10-04T15:15:10;95740.19;;;16.83;100.00
13314;BME280;6725;48.112;11.604;2022-10-04T15:34:30;95706.63;;;16.56;100.00
13314;BME280;6725;48.112;11.604;2022-10-04T15:37:22;95692.69;;;16.47;100.00
13314;BME280;6725;48.112;11.604;2022-10-04T15:40:19;95684.22;;;16.38;100.00
13314;BME280;6725;48.112;11.604;2022-10-04T15:43:19;95674.72;;;16.39;100.00
13314;BME280;6725;48.112;11.604;2022-10-04T15:52:10;95643.47;;;16.29;100.00
13314;BME280;6725;48.112;11.604;2022-10-04T15:57:28;95630.34;;;16.21;100.00
13314;BME280;6725;48.112;11.604;2022-10-04T16:00:14;95598.91;;;16.18;100.00
13314;BME280;6725;48.112;11.604;2022-10-04T16:11:33;95533.44;;;15.94;100.00
13314;BME280;6725;48.112;11.604;2022-10-04T16:17:27;95470.81;;;15.82;100.00
13314;BME280;6725;48.112;11.604;2022-10-04T16:22:33;95412.25;;;15.65;100.00
13314;BME280;6725;48.112;11.604;2022-10-04T16:36:02;95135.69;;;15.29;100.00
13314;BME280;6725;48.112;11.604;2022-10-04T16:38:32;95078.47;;;15.24;100.00
13314;BME280;6725;48.112;11.604;2022-10-04T16:41:12;94975.81;;;15.14;100.00
13314;BME280;6725;48.112;11.604;2022-10-04T16:43:52;94772.66;;;15.04;100.00
13314;BME280;6725;48.112;11.604;2022-10-04T16:46:39;94656.31;;;14.94;100.00
13314;BME280;6725;48.112;11.604;2022-10-04T16:52:46;94508.34;;;14.71;100.00
13314;BME280;6725;48.112;11.604;2022-10-04T16:57:24;94411.00;;;14.51;100.00
13314;BME280;6725;48.112;11.604;2022-10-04T16:59:55;94426.38;;;14.39;100.00
13314;BME280;6725;48.112;11.604;2022-10-04T17:07:50;94842.06;;;14.11;100.00
13314;BME280;6725;48.112;11.604;2022-10-04T17:13:42;95079.03;;;13.96;100.00
13314;BME280;6725;48.112;11.604;2022-10-04T17:16:23;95178.81;;;13.89;100.00
13314;BME280;6725;48.112;11.604;2022-10-04T17:21:51;95216.88;;;13.71;100.00
13314;BME280;6725;48.112;11.604;2022-10-04T17:24:55;95233.16;;;13.62;100.00
13314;BME280;6725;48.112;11.604;2022-10-04T17:30:12;95256.13;;;13.52;100.00
13314;BME280;6725;48.112;11.604;2022-10-04T17:38:15;95300.09;;;13.29;100.00
13314;BME280;6725;48.112;11.604;2022-10-04T17:41:04;95307.63;;;13.25;100.00
13314;BME280;6725;48.112;11.604;2022-10-04T17:46:22;95338.91;;;13.08;100.00
13314;BME280;6725;48.112;11.604;2022-10-04T17:48:54;95357.88;;;12.99;100.00
13314;BME280;6725;48.112;11.604;2022-10-04T17:51:46;95374.81;;;12.90;100.00
13314;BME280;6725;48.112;11.604;2022-10-04T17:54:45;95392.59;;;12.82;100.00
13314;BME280;6725;48.112;11.604;2022-10-04T18:00:08;95406.06;;;12.73;100.00
13314;BME280;6725;48.112;11.604;2022-10-04T18:11:00;95432.91;;;12.59;100.00
13314;BME280;6725;48.112;11.604;2022-10-04T18:13:32;95436.94;;;12.51;100.00
13314;BME280;6725;48.112;11.604;2022-10-04T18:16:20;95438.66;;;12.41;100.00
13314;BME280;6725;48.112;11.604;2022-10-04T18:18:48;95463.78;;;12.36;100.00
13314;BME280;6725;48.112;11.604;2022-10-04T18:21:19;95465.81;;;12.29;100.00
13314;BME280;6725;48.112;11.604;2022-10-04T18:26:53;95484.28;;;12.21;100.00
13314;BME280;6725;48.112;11.604;2022-10-04T18:29:38;95482.84;;;12.13;100.00
13314;BME280;6725;48.112;11.604;2022-10-04T18:32:31;95493.47;;;12.08;100.00
13314;BME280;6725;48.112;11.604;2022-10-04T18:34:58;95498.66;;;11.99;100.00
13314;BME280;6725;48.112;11.604;2022-10-04T18:37:37;95510.50;;;11.89;100.00
13314;BME280;6725;48.112;11.604;2022-10-04T18:40:23;95513.31;;;11.82;100.00
13314;BME280;6725;48.112;11.604;2022-10-04T18:42:52;95525.47;;;11.81;100.00
13314;BME280;6725;48.112;11.604;2022-10-04T18:47:55;95548.63;;;11.69;100.00
13314;BME280;6725;48.112;11.604;2022-10-04T18:50:25;95562.34;;;11.66;100.00
13314;BME280;6725;48.112;11.604;2022-10-04T18:53:16;95558.47;;;11.60;100.00
13314;BME280;6725;48.112;11.604;2022-10-04T18:55:58;95565.97;;;11.52;100.00
13314;BME280;6725;48.112;11.604;2022-10-04T19:09:53;95596.19;;;11.35;100.00
13314;BME280;6725;48.112;11.604;2022-10-04T19:12:32;95592.34;;;11.29;100.00
13314;BME280;6725;48.112;11.604;2022-10-04T19:23:24;95613.53;;;11.14;100.00
13314;BME280;6725;48.112;11.604;2022-10-04T19:25:54;95613.56;;;11.11;100.00
13314;BME280;6725;48.112;11.604;2022-10-04T19:28:29;95615.16;;;11.05;100.00
13314;BME280;6725;48.112;11.604;2022-10-04T19:31:01;95611.28;;;10.99;100.00
13314;BME280;6725;48.112;11.604;2022-10-04T19:36:29;95633.22;;;10.88;100.00
13314;BME280;6725;48.112;11.604;2022-10-04T19:42:13;95650.47;;;10.75;100.00
13314;BME280;6725;48.112;11.604;2022-10-04T19:47:49;95649.34;;;10.62;100.00
13314;BME280;6725;48.112;11.604;2022-10-04T19:52:47;95646.69;;;10.48;100.00
13314;BME280;6725;48.112;11.604;2022-10-04T19:58:12;95642.78;;;10.49;100.00
13314;BME280;6725;48.112;11.604;2022-10-04T20:00:42;95633.44;;;10.46;100.00
13314;BME280;6725;48.112;11.604;2022-10-04T20:03:11;95646.69;;;10.48;100.00
13314;BME280;6725;48.112;11.604;2022-10-04T20:05:45;95643.16;;;10.44;100.00
13314;BME280;6725;48.112;11.604;2022-10-04T20:08:15;95655.25;;;10.43;100.00
13314;BME280;6725;48.112;11.604;2022-10-04T20:11:25;95656.03;;;10.40;100.00
13314;BME280;6725;48.112;11.604;2022-10-04T20:19:38;95668.56;;;10.34;100.00
13314;BME280;6725;48.112;11.604;2022-10-04T20:27:04;95664.69;;;10.24;100.00
13314;BME280;6725;48.112;11.604;2022-10-04T20:33:06;95614.00;;;10.27;100.00
13314;BME280;6725;48.112;11.604;2022-10-04T20:35:11;95603.88;;;10.24;100.00
13314;BME280;6725;48.112;11.604;2022-10-04T20:45:42;95600.75;;;10.14;100.00
13314;BME280;6725;48.112;11.604;2022-10-04T20:48:16;95610.16;;;10.10;100.00
13314;BME280;6725;48.112;11.604;2022-10-04T20:50:42;95610.16;;;10.06;100.00
13314;BME280;6725;48.112;11.604;2022-10-04T20:53:26;95607.00;;;10.01;100.00
13314;BME280;6725;48.112;11.604;2022-10-04T20:56:31;95608.22;;;9.96;100.00
13314;BME280;6725;48.112;11.604;2022-10-04T20:59:01;95622.22;;;9.91;100.00
13314;BME280;6725;48.112;11.604;2022-10-04T21:04:19;95622.25;;;9.88;100.00
13314;BME280;6725;48.112;11.604;2022-10-04T21:06:56;95634.34;;;9.83;100.00
13314;BME280;6725;48.112;11.604;2022-10-04T21:09:24;95635.91;;;9.81;100.00
13314;BME280;6725;48.112;11.604;2022-10-04T21:11:50;95636.28;;;9.76;100.00
13314;BME280;6725;48.112;11.604;2022-10-04T21:14:24;95640.56;;;9.73;100.00
13314;BME280;6725;48.112;11.604;2022-10-04T21:16:51;95641.34;;;9.70;100.00
13314;BME280;6725;48.112;11.604;2022-10-04T21:27:33;95646.84;;;9.56;100.00
13314;BME280;6725;48.112;11.604;2022-10-04T21:30:00;95647.59;;;9.53;100.00
13314;BME280;6725;48.112;11.604;2022-10-04T21:32:26;95658.88;;;9.48;100.00
13314;BME280;6725;48.112;11.604;2022-10-04T21:34:52;95658.50;;;9.39;100.00
13314;BME280;6725;48.112;11.604;2022-10-04T21:37:19;95655.00;;;9.35;100.00
13314;BME280;6725;48.112;11.604;2022-10-04T21:39:44;95658.88;;;9.31;100.00
13314;BME280;6725;48.112;11.604;2022-10-04T21:42:10;95651.09;;;9.29;100.00
13314;BME280;6725;48.112;11.604;2022-10-04T21:44:35;95664.72;;;9.26;100.00
13314;BME280;6725;48.112;11.604;2022-10-04T21:47:01;95667.81;;;9.17;100.00
13314;BME280;6725;48.112;11.604;2022-10-04T21:49:26;95666.28;;;9.16;100.00
13314;BME280;6725;48.112;11.604;2022-10-04T21:51:52;95668.22;;;9.12;100.00
13314;BME280;6725;48.112;11.604;2022-10-04T21:54:17;95666.66;;;9.08;100.00
13314;BME280;6725;48.112;11.604;2022-10-04T21:56:42;95668.59;;;9.11;100.00
13314;BME280;6725;48.112;11.604;2022-10-04T21:59:08;95683.38;;;9.06;100.00
13314;BME280;6725;48.112;11.604;2022-10-04T22:01:33;95679.47;;;9.04;100.00
13314;BME280;6725;48.112;11.604;2022-10-04T22:03:58;95674.00;;;9.00;100.00
13314;BME280;6725;48.112;11.604;2022-10-04T22:06:24;95667.78;;;9.03;100.00
13314;BME280;6725;48.112;11.604;2022-10-04T22:08:49;95669.34;;;9.04;100.00
13314;BME280;6725;48.112;11.604;2022-10-04T22:11:15;95666.25;;;9.02;100.00
13314;BME280;6725;48.112;11.604;2022-10-04T22:13:40;95667.41;;;9.01;100.00
13314;BME280;6725;48.112;11.604;2022-10-04T22:16:06;95657.66;;;9.00;100.00
13314;BME280;6725;48.112;11.604;2022-10-04T22:18:31;95663.91;;;8.97;100.00
13314;BME280;6725;48.112;11.604;2022-10-04T22:20:57;95649.13;;;8.98;100.00
13314;BME280;6725;48.112;11.604;2022-10-04T22:23:24;95648.34;;;8.94;100.00
13314;BME280;6725;48.112;11.604;2022-10-04T22:25:51;95653.00;;;8.90;100.00
13314;BME280;6725;48.112;11.604;2022-10-04T22:28:36;95642.09;;;8.83;100.00
13314;BME280;6725;48.112;11.604;2022-10-04T22:31:10;95647.13;;;8.81;100.00
13314;BME280;6725;48.112;11.604;2022-10-04T22:33:37;95637.41;;;8.80;100.00
13314;BME280;6725;48.112;11.604;2022-10-04T22:36:32;95640.09;;;8.77;100.00
13314;BME280;6725;48.112;11.604;2022-10-04T22:39:20;95631.94;;;8.73;100.00
13314;BME280;6725;48.112;11.604;2022-10-04T22:41:48;95635.84;;;8.72;100.00
13314;BME280;6725;48.112;11.604;2022-10-04T22:44:28;95632.72;;;8.70;100.00
13314;BME280;6725;48.112;11.604;2022-10-04T22:46:58;95631.53;;;8.68;100.00
13314;BME280;6725;48.112;11.604;2022-10-04T22:49:30;95635.41;;;8.63;100.00
13314;BME280;6725;48.112;11.604;2022-10-04T22:51:57;95636.56;;;8.62;100.00
13314;BME280;6725;48.112;11.604;2022-10-04T22:54:25;95629.59;;;8.61;100.00
13314;BME280;6725;48.112;11.604;2022-10-04T22:56:51;95628.00;;;8.60;100.00
13314;BME280;6725;48.112;11.604;2022-10-04T22:59:18;95632.69;;;8.60;100.00
13314;BME280;6725;48.112;11.604;2022-10-04T23:01:44;95624.91;;;8.58;100.00
13314;BME280;6725;48.112;11.604;2022-10-04T23:04:20;95640.44;;;8.58;100.00
13314;BME280;6725;48.112;11.604;2022-10-04T23:06:46;95644.34;;;8.57;100.00
13314;BME280;6725;48.112;11.604;2022-10-04T23:09:11;95643.13;;;8.51;100.00
13314;BME280;6725;48.112;11.604;2022-10-04T23:11:37;95645.84;;;8.47;100.00
13314;BME280;6725;48.112;11.604;2022-10-04T23:14:02;95642.72;;;8.42;100.00
13314;BME280;6725;48.112;11.604;2022-10-04T23:16:28;95632.59;;;8.35;100.00